sensor_id;sensor_type;location;lat;lon;timestamp;pressure;altitude;pressure_sealevel;temperature;humidity
23318;BME280;11831;55.918;37.746;2023-12-22T00:00:47;97034.69;;;5.05;0.00
23318;BME280;11831;55.918;37.746;2023-12-22T00:03:15;97032.28;;;5.04;0.00
23318;BME280;11831;55.918;37.746;2023-12-22T00:05:41;97029.41;;;4.56;0.00
23318;BME280;11831;55.918;37.746;2023-12-22T00:08:08;97040.97;;;4.50;0.00
23318;BME280;11831;55.918;37.746;2023-12-22T00:10:34;97036.06;;;4.86;0.00
23318;BME280;11831;55.918;37.746;2023-12-22T00:13:01;97034.97;;;4.82;0.00
23318;BME280;11831;55.918;37.746;2023-12-22T00:15:27;97036.84;;;5.08;0.00
23318;BME280;11831;55.918;37.746;2023-12-22T00:17:53;97034.88;;;4.72;0.00
23318;BME280;11831;55.918;37.746;2023-12-22T00:20:20;97039.28;;;4.88;0.00
23318;BME280;11831;55.918;37.746;2023-12-22T00:22:46;97032.53;;;5.02;0.00
23318;BME280;11831;55.918;37.746;2023-12-22T00:25:13;97036.03;;;4.81;0.00
23318;BME280;11831;55.918;37.746;2023-12-22T00:27:39;97026.81;;;4.88;0.00
23318;BME280;11831;55.918;37.746;2023-12-22T00:30:07;97028.37;;;5.11;0.00
23318;BME280;11831;55.918;37.746;2023-12-22T00:32:33;97021.44;;;5.05;0.00
23318;BME280;11831;55.918;37.746;2023-12-22T00:35:00;97020.91;;;5.03;0.00
23318;BME280;11831;55.918;37.746;2023-12-22T00:37:26;97018.09;;;5.15;0.00
23318;BME280;11831;55.918;37.746;2023-12-22T00:39:53;97021.59;;;5.20;0.00
23318;BME280;11831;55.918;37.746;2023-12-22T00:42:19;97028.94;;;5.13;0.00
23318;BME280;11831;55.918;37.746;2023-12-22T00:44:46;97016.09;;;5.27;0.00
23318;BME280;11831;55.918;37.746;2023-12-22T00:47:12;97022.53;;;5.09;0.00
23318;BME280;11831;55.918;37.746;2023-12-22T00:49:39;97018.28;;;5.08;0.00
23318;BME280;11831;55.918;37.746;2023-12-22T00:52:05;97026.44;;;4.75;0.00
23318;BME280;11831;55.918;37.746;2023-12-22T00:54:31;97017.47;;;5.35;0.00
23318;BME280;11831;55.918;37.746;2023-12-22T00:56:58;97026.00;;;5.10;0.00
23318;BME280;11831;55.918;37.746;2023-12-22T00:59:24;97013.37;;;5.54;0.00
23318;BME280;11831;55.918;37.746;2023-12-22T01:01:51;97009.34;;;5.46;0.00
23318;BME280;11831;55.918;37.746;2023-12-22T01:04:17;97010.12;;;5.47;0.00
23318;BME280;11831;55.918;37.746;2023-12-22T01:06:44;97008.19;;;5.69;0.00
23318;BME280;11831;55.918;37.746;2023-12-22T01:09:11;97007.31;;;5.58;0.00
23318;BME280;11831;55.918;37.746;2023-12-22T01:11:38;97002.66;;;5.39;0.00
23318;BME280;11831;55.918;37.746;2023-12-22T01:14:05;97014.13;;;5.49;0.00
23318;BME280;11831;55.918;37.746;2023-12-22T01:16:33;97010.34;;;5.40;0.00
23318;BME280;11831;55.918;37.746;2023-12-22T01:18:59;97006.22;;;5.91;0.00
23318;BME280;11831;55.918;37.746;2023-12-22T01:21:26;97012.94;;;5.67;0.00
23318;BME280;11831;55.918;37.746;2023-12-22T01:23:52;97008.19;;;5.69;0.00
23318;BME280;11831;55.918;37.746;2023-12-22T01:26:18;97003.09;;;5.62;0.00
23318;BME280;11831;55.918;37.746;2023-12-22T01:28:45;97008.19;;;5.69;0.00
23318;BME280;11831;55.918;37.746;2023-12-22T01:31:11;97008.41;;;6.00;0.00
23318;BME280;11831;55.918;37.746;2023-12-22T01:33:38;97011.44;;;5.44;0.00
23318;BME280;11831;55.918;37.746;2023-12-22T01:36:04;97005.19;;;5.55;0.00
23318;BME280;11831;55.918;37.746;2023-12-22T01:38:31;97008.78;;;5.12;0.00
23318;BME280;11831;55.918;37.746;2023-12-22T01:40:57;97007.31;;;4.94;0.00
23318;BME280;11831;55.918;37.746;2023-12-22T01:43:24;96999.28;;;5.16;0.00
23318;BME280;11831;55.918;37.746;2023-12-22T01:45:54;97003.72;;;5.06;0.00
23318;BME280;11831;55.918;37.746;2023-12-22T01:48:22;97008.53;;;5.46;0.00
23318;BME280;11831;55.918;37.746;2023-12-22T01:50:50;97006.88;;;5.72;0.00
23318;BME280;11831;55.918;37.746;2023-12-22T01:53:19;97000.41;;;5.57;0.00
23318;BME280;11831;55.918;37.746;2023-12-22T01:55:48;96993.62;;;5.03;0.00
23318;BME280;11831;55.918;37.746;2023-12-22T01:58:15;96985.50;;;5.14;0.00
23318;BME280;11831;55.918;37.746;2023-12-22T02:00:42;96987.59;;;5.44;0.00
23318;BME280;11831;55.918;37.746;2023-12-22T02:03:09;96988.91;;;5.42;0.00
23318;BME280;11831;55.918;37.746;2023-12-22T02:05:36;96991.19;;;4.69;0.00
23318;BME280;11831;55.918;37.746;2023-12-22T02:08:03;96987.84;;;5.11;0.00
23318;BME280;11831;55.918;37.746;2023-12-22T02:10:30;96985.94;;;5.01;0.00
23318;BME280;11831;55.918;37.746;2023-12-22T02:12:56;96981.63;;;5.64;0.00
23318;BME280;11831;55.918;37.746;2023-12-22T02:15:23;96978.75;;;4.70;0.00
23318;BME280;11831;55.918;37.746;2023-12-22T02:18:18;96971.59;;;4.97;0.00
23318;BME280;11831;55.918;37.746;2023-12-22T02:20:47;96976.09;;;4.96;0.00
23318;BME280;11831;55.918;37.746;2023-12-22T02:23:14;96975.34;;;5.33;0.00
23318;BME280;11831;55.918;37.746;2023-12-22T02:25:40;96969.25;;;5.38;0.00
23318;BME280;11831;55.918;37.746;2023-12-22T02:28:12;96969.50;;;5.31;0.00
23318;BME280;11831;55.918;37.746;2023-12-22T02:33:28;96971.97;;;5.85;0.00
23318;BME280;11831;55.918;37.746;2023-12-22T02:35:59;96967.34;;;5.65;0.00
23318;BME280;11831;55.918;37.746;2023-12-22T02:38:29;96966.47;;;5.97;0.00
23318;BME280;11831;55.918;37.746;2023-12-22T02:40:57;96971.03;;;5.64;0.00
23318;BME280;11831;55.918;37.746;2023-12-22T02:43:23;96969.22;;;5.75;0.00
23318;BME280;11831;55.918;37.746;2023-12-22T02:45:50;96969.66;;;5.99;0.00
23318;BME280;11831;55.918;37.746;2023-12-22T02:48:17;96969.16;;;5.59;0.00
23318;BME280;11831;55.918;37.746;2023-12-22T02:50:44;96960.28;;;5.44;0.00
23318;BME280;11831;55.918;37.746;2023-12-22T02:53:10;96975.91;;;5.40;0.00
23318;BME280;11831;55.918;37.746;2023-12-22T02:55:37;96971.72;;;5.49;0.00
23318;BME280;11831;55.918;37.746;2023-12-22T02:58:03;96971.19;;;5.15;0.00
23318;BME280;11831;55.918;37.746;2023-12-22T03:00:30;96965.44;;;5.55;0.00
23318;BME280;11831;55.918;37.746;2023-12-22T03:02:56;96965.31;;;5.82;0.00
23318;BME280;11831;55.918;37.746;2023-12-22T03:05:23;96961.84;;;6.29;0.00
23318;BME280;11831;55.918;37.746;2023-12-22T03:07:49;96956.12;;;5.95;0.00
23318;BME280;11831;55.918;37.746;2023-12-22T03:10:15;96945.63;;;6.20;0.00
23318;BME280;11831;55.918;37.746;2023-12-22T03:12:42;96949.50;;;5.93;0.00
23318;BME280;11831;55.918;37.746;2023-12-22T03:15:09;96943.31;;;5.82;0.00
23318;BME280;11831;55.918;37.746;2023-12-22T03:17:35;96931.50;;;6.05;0.00
23318;BME280;11831;55.918;37.746;2023-12-22T03:20:02;96932.62;;;4.92;0.00
23318;BME280;11831;55.918;37.746;2023-12-22T03:22:29;96933.84;;;5.96;0.00
23318;BME280;11831;55.918;37.746;2023-12-22T03:24:56;96926.00;;;5.69;0.00
23318;BME280;11831;55.918;37.746;2023-12-22T03:27:22;96927.50;;;6.02;0.00
23318;BME280;11831;55.918;37.746;2023-12-22T03:29:49;96927.75;;;6.01;0.00
23318;BME280;11831;55.918;37.746;2023-12-22T03:32:15;96926.97;;;5.16;0.00
23318;BME280;11831;55.918;37.746;2023-12-22T03:34:42;96937.16;;;5.76;0.00
23318;BME280;11831;55.918;37.746;2023-12-22T03:37:09;96937.34;;;5.59;0.00
23318;BME280;11831;55.918;37.746;2023-12-22T03:39:35;96941.41;;;5.30;0.00
23318;BME280;11831;55.918;37.746;2023-12-22T03:42:02;96939.63;;;5.46;0.00
23318;BME280;11831;55.918;37.746;2023-12-22T03:44:28;96946.53;;;5.47;0.00
23318;BME280;11831;55.918;37.746;2023-12-22T03:46:55;96943.78;;;5.32;0.00
23318;BME280;11831;55.918;37.746;2023-12-22T03:49:22;96941.66;;;5.76;0.00
23318;BME280;11831;55.918;37.746;2023-12-22T03:51:48;96949.44;;;5.45;0.00
23318;BME280;11831;55.918;37.746;2023-12-22T03:54:15;96938.22;;;4.96;0.00
23318;BME280;11831;55.918;37.746;2023-12-22T03:56:43;96941.94;;;5.32;0.00
23318;BME280;11831;55.918;37.746;2023-12-22T03:59:10;96947.97;;;5.65;0.00
23318;BME280;11831;55.918;37.746;2023-12-22T04:01:36;96930.72;;;5.57;0.00
23318;BME280;11831;55.918;37.746;2023-12-22T04:04:03;96926.53;;;5.71;0.00
23318;BME280;11831;55.918;37.746;2023-12-22T04:06:29;96936.09;;;5.72;0.00
23318;BME280;11831;55.918;37.746;2023-12-22T04:08:56;96929.41;;;5.59;0.00
23318;BME280;11831;55.918;37.746;2023-12-22T04:11:22;96929.69;;;5.21;0.00
23318;BME280;11831;55.918;37.746;2023-12-22T04:13:49;96923.09;;;5.76;0.00
23318;BME280;11831;55.918;37.746;2023-12-22T04:16:15;96915.81;;;5.51;0.00
23318;BME280;11831;55.918;37.746;2023-12-22T04:18:42;96918.62;;;5.81;0.00
23318;BME280;11831;55.918;37.746;2023-12-22T04:21:08;96911.03;;;5.48;0.00
23318;BME280;11831;55.918;37.746;2023-12-22T04:23:35;96915.97;;;5.34;0.00
23318;BME280;11831;55.918;37.746;2023-12-22T04:26:02;96904.84;;;6.67;0.00
23318;BME280;11831;55.918;37.746;2023-12-22T04:28:29;96895.47;;;6.14;0.00
23318;BME280;11831;55.918;37.746;2023-12-22T04:30:55;96897.84;;;5.58;0.00
23318;BME280;11831;55.918;37.746;2023-12-22T04:33:22;96901.13;;;5.80;0.00
23318;BME280;11831;55.918;37.746;2023-12-22T04:35:48;96896.66;;;4.37;0.00
23318;BME280;11831;55.918;37.746;2023-12-22T04:38:14;96894.25;;;4.63;0.00
23318;BME280;11831;55.918;37.746;2023-12-22T04:40:40;96890.53;;;5.28;0.00
23318;BME280;11831;55.918;37.746;2023-12-22T04:43:07;96892.91;;;5.29;0.00
23318;BME280;11831;55.918;37.746;2023-12-22T04:45:33;96891.25;;;4.86;0.00
23318;BME280;11831;55.918;37.746;2023-12-22T04:47:59;96875.91;;;5.20;0.00
23318;BME280;11831;55.918;37.746;2023-12-22T04:50:26;96881.34;;;5.04;0.00
23318;BME280;11831;55.918;37.746;2023-12-22T04:52:52;96879.81;;;4.22;0.00
23318;BME280;11831;55.918;37.746;2023-12-22T04:55:18;96861.47;;;5.01;0.00
23318;BME280;11831;55.918;37.746;2023-12-22T04:57:45;96858.94;;;4.52;0.00
23318;BME280;11831;55.918;37.746;2023-12-22T05:00:12;96866.50;;;4.65;0.00
23318;BME280;11831;55.918;37.746;2023-12-22T05:02:38;96852.28;;;4.45;0.00
23318;BME280;11831;55.918;37.746;2023-12-22T05:05:05;96866.47;;;4.33;0.00
23318;BME280;11831;55.918;37.746;2023-12-22T05:07:34;96863.69;;;4.50;0.00
23318;BME280;11831;55.918;37.746;2023-12-22T05:10:01;96872.97;;;4.26;0.00
23318;BME280;11831;55.918;37.746;2023-12-22T05:12:27;96856.91;;;4.59;0.00
23318;BME280;11831;55.918;37.746;2023-12-22T05:14:53;96863.03;;;4.97;0.00
23318;BME280;11831;55.918;37.746;2023-12-22T05:17:20;96864.28;;;5.26;0.00
23318;BME280;11831;55.918;37.746;2023-12-22T05:19:46;96871.59;;;4.45;0.00
23318;BME280;11831;55.918;37.746;2023-12-22T05:22:13;96871.69;;;4.87;0.00
23318;BME280;11831;55.918;37.746;2023-12-22T05:24:39;96868.78;;;4.89;0.00
23318;BME280;11831;55.918;37.746;2023-12-22T05:27:06;96863.25;;;4.90;0.00
23318;BME280;11831;55.918;37.746;2023-12-22T05:29:33;96866.22;;;4.35;0.00
23318;BME280;11831;55.918;37.746;2023-12-22T05:32:00;96866.34;;;4.50;0.00
23318;BME280;11831;55.918;37.746;2023-12-22T05:34:26;96865.44;;;5.04;0.00
23318;BME280;11831;55.918;37.746;2023-12-22T05:36:52;96863.75;;;4.28;0.00
23318;BME280;11831;55.918;37.746;2023-12-22T05:39:19;96876.69;;;4.52;0.00
23318;BME280;11831;55.918;37.746;2023-12-22T05:41:45;96867.56;;;4.37;0.00
23318;BME280;11831;55.918;37.746;2023-12-22T05:44:11;96875.91;;;4.56;0.00
23318;BME280;11831;55.918;37.746;2023-12-22T05:46:38;96877.84;;;3.63;0.00
23318;BME280;11831;55.918;37.746;2023-12-22T05:49:05;96882.75;;;4.25;0.00
23318;BME280;11831;55.918;37.746;2023-12-22T05:51:40;96872.16;;;4.79;0.00
23318;BME280;11831;55.918;37.746;2023-12-22T05:54:08;96870.78;;;4.72;0.00
23318;BME280;11831;55.918;37.746;2023-12-22T05:56:34;96874.44;;;4.39;0.00
23318;BME280;11831;55.918;37.746;2023-12-22T05:59:01;96874.69;;;3.88;0.00
23318;BME280;11831;55.918;37.746;2023-12-22T06:01:27;96873.53;;;3.79;0.00
23318;BME280;11831;55.918;37.746;2023-12-22T06:03:53;96872.06;;;4.37;0.00
23318;BME280;11831;55.918;37.746;2023-12-22T06:06:21;96875.87;;;4.51;0.00
23318;BME280;11831;55.918;37.746;2023-12-22T06:08:47;96873.78;;;4.53;0.00
23318;BME280;11831;55.918;37.746;2023-12-22T06:11:14;96874.19;;;4.40;0.00
23318;BME280;11831;55.918;37.746;2023-12-22T06:13:40;96878.59;;;4.29;0.00
23318;BME280;11831;55.918;37.746;2023-12-22T06:16:14;96881.66;;;4.48;0.00
23318;BME280;11831;55.918;37.746;2023-12-22T06:18:41;96880.66;;;4.54;0.00
23318;BME280;11831;55.918;37.746;2023-12-22T06:21:08;96880.53;;;3.90;0.00
23318;BME280;11831;55.918;37.746;2023-12-22T06:23:35;96882.38;;;4.65;0.00
23318;BME280;11831;55.918;37.746;2023-12-22T06:26:08;96871.69;;;4.01;0.00
23318;BME280;11831;55.918;37.746;2023-12-22T06:28:34;96879.44;;;4.62;0.00
23318;BME280;11831;55.918;37.746;2023-12-22T06:31:02;96878.50;;;4.78;0.00
23318;BME280;11831;55.918;37.746;2023-12-22T06:33:29;96875.72;;;4.63;0.00
23318;BME280;11831;55.918;37.746;2023-12-22T06:35:56;96884.19;;;4.60;0.00
23318;BME280;11831;55.918;37.746;2023-12-22T06:38:22;96883.53;;;4.80;0.00
23318;BME280;11831;55.918;37.746;2023-12-22T06:40:48;96882.38;;;4.97;0.00
23318;BME280;11831;55.918;37.746;2023-12-22T06:43:15;96889.16;;;5.20;0.00
23318;BME280;11831;55.918;37.746;2023-12-22T06:45:41;96891.09;;;4.66;0.00
23318;BME280;11831;55.918;37.746;2023-12-22T06:48:07;96892.50;;;5.11;0.00
23318;BME280;11831;55.918;37.746;2023-12-22T06:50:35;96893.00;;;4.71;0.00
23318;BME280;11831;55.918;37.746;2023-12-22T06:53:03;96883.72;;;5.05;0.00
23318;BME280;11831;55.918;37.746;2023-12-22T06:55:30;96877.22;;;4.86;0.00
23318;BME280;11831;55.918;37.746;2023-12-22T06:57:56;96880.06;;;4.47;0.00
23318;BME280;11831;55.918;37.746;2023-12-22T07:00:22;96893.97;;;4.32;0.00
23318;BME280;11831;55.918;37.746;2023-12-22T07:02:49;96893.69;;;4.29;0.00
23318;BME280;11831;55.918;37.746;2023-12-22T07:07:47;96895.69;;;4.49;0.00
23318;BME280;11831;55.918;37.746;2023-12-22T07:10:14;96891.06;;;5.30;0.00
23318;BME280;11831;55.918;37.746;2023-12-22T07:12:40;96890.22;;;5.24;0.00
23318;BME280;11831;55.918;37.746;2023-12-22T07:15:06;96887.75;;;5.55;0.00
23318;BME280;11831;55.918;37.746;2023-12-22T07:17:34;96895.91;;;5.48;0.00
23318;BME280;11831;55.918;37.746;2023-12-22T07:20:00;96902.44;;;5.25;0.00
23318;BME280;11831;55.918;37.746;2023-12-22T07:22:29;96885.50;;;4.30;0.00
23318;BME280;11831;55.918;37.746;2023-12-22T07:24:55;96894.69;;;3.79;0.00
23318;BME280;11831;55.918;37.746;2023-12-22T07:27:22;96885.59;;;4.73;0.00
23318;BME280;11831;55.918;37.746;2023-12-22T07:29:48;96902.88;;;4.80;0.00
23318;BME280;11831;55.918;37.746;2023-12-22T07:32:15;96890.38;;;4.76;0.00
23318;BME280;11831;55.918;37.746;2023-12-22T07:34:41;96891.00;;;4.88;0.00
23318;BME280;11831;55.918;37.746;2023-12-22T07:37:08;96902.91;;;4.85;0.00
23318;BME280;11831;55.918;37.746;2023-12-22T07:39:34;96900.84;;;5.24;0.00
23318;BME280;11831;55.918;37.746;2023-12-22T07:42:00;96894.84;;;5.02;0.00
23318;BME280;11831;55.918;37.746;2023-12-22T07:44:27;96888.03;;;4.79;0.00
23318;BME280;11831;55.918;37.746;2023-12-22T07:46:57;96867.34;;;5.08;0.00
23318;BME280;11831;55.918;37.746;2023-12-22T07:49:24;96886.75;;;4.87;0.00
23318;BME280;11831;55.918;37.746;2023-12-22T07:51:52;96884.81;;;4.72;0.00
23318;BME280;11831;55.918;37.746;2023-12-22T07:54:19;96868.56;;;4.90;0.00
23318;BME280;11831;55.918;37.746;2023-12-22T07:56:45;96867.53;;;5.44;0.00
23318;BME280;11831;55.918;37.746;2023-12-22T07:59:11;96858.69;;;5.23;0.00
23318;BME280;11831;55.918;37.746;2023-12-22T08:01:38;96871.19;;;4.90;0.00
23318;BME280;11831;55.918;37.746;2023-12-22T08:04:04;96867.38;;;5.18;0.00
23318;BME280;11831;55.918;37.746;2023-12-22T08:06:30;96863.31;;;4.63;0.00
23318;BME280;11831;55.918;37.746;2023-12-22T08:08:57;96869.13;;;5.40;0.00
23318;BME280;11831;55.918;37.746;2023-12-22T08:11:23;96859.53;;;5.28;0.00
23318;BME280;11831;55.918;37.746;2023-12-22T08:13:51;96843.78;;;5.12;0.00
23318;BME280;11831;55.918;37.746;2023-12-22T08:16:17;96840.53;;;5.47;0.00
23318;BME280;11831;55.918;37.746;2023-12-22T08:18:44;96830.47;;;4.96;0.00
23318;BME280;11831;55.918;37.746;2023-12-22T08:21:10;96845.87;;;5.10;0.00
23318;BME280;11831;55.918;37.746;2023-12-22T08:23:36;96844.59;;;5.17;0.00
23318;BME280;11831;55.918;37.746;2023-12-22T08:26:02;96828.56;;;4.92;0.00
23318;BME280;11831;55.918;37.746;2023-12-22T08:28:29;96838.44;;;5.02;0.00
23318;BME280;11831;55.918;37.746;2023-12-22T08:30:55;96831.28;;;5.02;0.00
23318;BME280;11831;55.918;37.746;2023-12-22T08:33:22;96831.09;;;4.77;0.00
23318;BME280;11831;55.918;37.746;2023-12-22T08:35:48;96825.34;;;5.27;0.00
23318;BME280;11831;55.918;37.746;2023-12-22T08:38:14;96827.03;;;5.01;0.00
23318;BME280;11831;55.918;37.746;2023-12-22T08:40:41;96814.63;;;5.07;0.00
23318;BME280;11831;55.918;37.746;2023-12-22T08:43:07;96821.56;;;5.18;0.00
23318;BME280;11831;55.918;37.746;2023-12-22T08:45:33;96838.78;;;5.68;0.00
23318;BME280;11831;55.918;37.746;2023-12-22T08:48:00;96850.31;;;5.94;0.00
23318;BME280;11831;55.918;37.746;2023-12-22T08:50:26;96842.03;;;5.27;0.00
23318;BME280;11831;55.918;37.746;2023-12-22T08:52:52;96841.62;;;4.66;0.00
23318;BME280;11831;55.918;37.746;2023-12-22T08:55:19;96833.03;;;5.28;0.00
23318;BME280;11831;55.918;37.746;2023-12-22T08:57:45;96837.81;;;5.32;0.00
23318;BME280;11831;55.918;37.746;2023-12-22T09:00:12;96833.25;;;4.80;0.00
23318;BME280;11831;55.918;37.746;2023-12-22T09:02:38;96834.31;;;4.84;0.00
23318;BME280;11831;55.918;37.746;2023-12-22T09:05:05;96823.75;;;5.26;0.00
23318;BME280;11831;55.918;37.746;2023-12-22T09:07:33;96829.66;;;5.48;0.00
23318;BME280;11831;55.918;37.746;2023-12-22T09:09:59;96825.50;;;4.68;0.00
23318;BME280;11831;55.918;37.746;2023-12-22T09:12:26;96832.13;;;5.13;0.00
23318;BME280;11831;55.918;37.746;2023-12-22T09:14:52;96826.34;;;4.79;0.00
23318;BME280;11831;55.918;37.746;2023-12-22T09:17:19;96844.13;;;5.20;0.00
23318;BME280;11831;55.918;37.746;2023-12-22T09:19:45;96841.41;;;4.41;0.00
23318;BME280;11831;55.918;37.746;2023-12-22T09:22:12;96839.41;;;4.58;0.00
23318;BME280;11831;55.918;37.746;2023-12-22T09:24:38;96823.63;;;4.68;0.00
23318;BME280;11831;55.918;37.746;2023-12-22T09:27:04;96834.78;;;5.13;0.00
23318;BME280;11831;55.918;37.746;2023-12-22T09:29:31;96839.22;;;4.65;0.00
23318;BME280;11831;55.918;37.746;2023-12-22T09:32:01;96819.38;;;4.62;0.00
23318;BME280;11831;55.918;37.746;2023-12-22T09:34:28;96830.56;;;5.17;0.00
23318;BME280;11831;55.918;37.746;2023-12-22T09:36:55;96820.69;;;4.65;0.00
23318;BME280;11831;55.918;37.746;2023-12-22T09:39:21;96815.22;;;5.19;0.00
23318;BME280;11831;55.918;37.746;2023-12-22T09:41:49;96804.28;;;5.05;0.00
23318;BME280;11831;55.918;37.746;2023-12-22T09:44:19;96818.31;;;5.53;0.00
23318;BME280;11831;55.918;37.746;2023-12-22T09:46:47;96802.41;;;5.53;0.00
23318;BME280;11831;55.918;37.746;2023-12-22T09:49:18;96807.09;;;5.30;0.00
23318;BME280;11831;55.918;37.746;2023-12-22T09:51:45;96796.47;;;4.83;0.00
23318;BME280;11831;55.918;37.746;2023-12-22T09:54:13;96803.28;;;5.16;0.00
23318;BME280;11831;55.918;37.746;2023-12-22T09:56:40;96804.59;;;5.71;0.00
23318;BME280;11831;55.918;37.746;2023-12-22T09:59:11;96812.97;;;6.15;0.00
23318;BME280;11831;55.918;37.746;2023-12-22T10:01:45;96807.75;;;5.63;0.00
23318;BME280;11831;55.918;37.746;2023-12-22T10:04:16;96800.63;;;5.79;0.00
23318;BME280;11831;55.918;37.746;2023-12-22T10:06:44;96814.78;;;5.95;0.00
23318;BME280;11831;55.918;37.746;2023-12-22T10:09:13;96803.69;;;5.45;0.00
23318;BME280;11831;55.918;37.746;2023-12-22T10:11:43;96806.13;;;5.57;0.00
23318;BME280;11831;55.918;37.746;2023-12-22T10:14:10;96793.81;;;5.25;0.00
23318;BME280;11831;55.918;37.746;2023-12-22T10:16:38;96778.88;;;5.09;0.00
23318;BME280;11831;55.918;37.746;2023-12-22T10:19:05;96774.88;;;5.59;0.00
23318;BME280;11831;55.918;37.746;2023-12-22T10:21:32;96779.00;;;5.35;0.00
23318;BME280;11831;55.918;37.746;2023-12-22T10:23:59;96784.09;;;4.94;0.00
23318;BME280;11831;55.918;37.746;2023-12-22T10:26:25;96785.91;;;5.41;0.00
23318;BME280;11831;55.918;37.746;2023-12-22T10:28:52;96783.59;;;4.28;0.00
23318;BME280;11831;55.918;37.746;2023-12-22T10:31:18;96782.81;;;5.02;0.00
23318;BME280;11831;55.918;37.746;2023-12-22T10:33:44;96774.19;;;5.21;0.00
23318;BME280;11831;55.918;37.746;2023-12-22T10:36:11;96777.63;;;4.75;0.00
23318;BME280;11831;55.918;37.746;2023-12-22T10:38:39;96768.53;;;5.65;0.00
23318;BME280;11831;55.918;37.746;2023-12-22T10:41:06;96773.34;;;5.16;0.00
23318;BME280;11831;55.918;37.746;2023-12-22T10:43:40;96785.34;;;5.96;0.00
23318;BME280;11831;55.918;37.746;2023-12-22T10:46:07;96765.31;;;4.95;0.00
23318;BME280;11831;55.918;37.746;2023-12-22T10:48:34;96774.81;;;5.44;0.00
23318;BME280;11831;55.918;37.746;2023-12-22T10:51:00;96765.41;;;5.83;0.00
23318;BME280;11831;55.918;37.746;2023-12-22T10:53:27;96763.13;;;5.40;0.00
23318;BME280;11831;55.918;37.746;2023-12-22T10:55:54;96770.78;;;4.84;0.00
23318;BME280;11831;55.918;37.746;2023-12-22T10:58:21;96763.66;;;4.47;0.00
23318;BME280;11831;55.918;37.746;2023-12-22T11:00:47;96749.75;;;4.62;0.00
23318;BME280;11831;55.918;37.746;2023-12-22T11:03:18;96751.94;;;4.70;0.00
23318;BME280;11831;55.918;37.746;2023-12-22T11:05:46;96746.72;;;4.43;0.00
23318;BME280;11831;55.918;37.746;2023-12-22T11:08:15;96746.13;;;4.73;0.00
23318;BME280;11831;55.918;37.746;2023-12-22T11:10:44;96742.72;;;4.83;0.00
23318;BME280;11831;55.918;37.746;2023-12-22T11:13:14;96728.28;;;5.06;0.00
23318;BME280;11831;55.918;37.746;2023-12-22T11:15:42;96743.19;;;4.70;0.00
23318;BME280;11831;55.918;37.746;2023-12-22T11:18:09;96737.16;;;4.37;0.00
23318;BME280;11831;55.918;37.746;2023-12-22T11:20:37;96741.91;;;4.77;0.00
23318;BME280;11831;55.918;37.746;2023-12-22T11:23:05;96748.53;;;4.37;0.00
23318;BME280;11831;55.918;37.746;2023-12-22T11:25:33;96741.97;;;4.45;0.00
23318;BME280;11831;55.918;37.746;2023-12-22T11:28:02;96738.50;;;4.87;0.00
23318;BME280;11831;55.918;37.746;2023-12-22T11:30:30;96746.53;;;5.02;0.00
23318;BME280;11831;55.918;37.746;2023-12-22T11:32:57;96744.44;;;4.25;0.00
23318;BME280;11831;55.918;37.746;2023-12-22T11:35:24;96740.91;;;4.88;0.00
23318;BME280;11831;55.918;37.746;2023-12-22T11:37:52;96730.72;;;4.65;0.00
23318;BME280;11831;55.918;37.746;2023-12-22T11:40:20;96748.78;;;4.78;0.00
23318;BME280;11831;55.918;37.746;2023-12-22T11:42:48;96742.50;;;4.15;0.00
23318;BME280;11831;55.918;37.746;2023-12-22T11:45:17;96722.63;;;4.87;0.00
23318;BME280;11831;55.918;37.746;2023-12-22T11:47:43;96727.91;;;4.82;0.00
23318;BME280;11831;55.918;37.746;2023-12-22T11:50:10;96730.87;;;4.90;0.00
23318;BME280;11831;55.918;37.746;2023-12-22T11:52:37;96740.03;;;4.03;0.00
23318;BME280;11831;55.918;37.746;2023-12-22T11:55:05;96726.13;;;4.50;0.00
23318;BME280;11831;55.918;37.746;2023-12-22T11:57:33;96724.94;;;4.31;0.00
23318;BME280;11831;55.918;37.746;2023-12-22T12:00:05;96721.97;;;3.95;0.00
23318;BME280;11831;55.918;37.746;2023-12-22T12:02:39;96736.44;;;4.52;0.00
23318;BME280;11831;55.918;37.746;2023-12-22T12:05:08;96730.53;;;3.76;0.00
23318;BME280;11831;55.918;37.746;2023-12-22T12:07:41;96720.38;;;3.94;0.00
23318;BME280;11831;55.918;37.746;2023-12-22T12:15:33;96722.72;;;4.23;0.00
23318;BME280;11831;55.918;37.746;2023-12-22T12:18:01;96745.84;;;4.00;0.00
23318;BME280;11831;55.918;37.746;2023-12-22T12:20:28;96722.41;;;3.82;0.00
23318;BME280;11831;55.918;37.746;2023-12-22T12:22:54;96732.47;;;3.36;0.00
23318;BME280;11831;55.918;37.746;2023-12-22T12:25:28;96740.72;;;3.67;0.00
23318;BME280;11831;55.918;37.746;2023-12-22T12:28:05;96724.50;;;3.31;0.00
23318;BME280;11831;55.918;37.746;2023-12-22T12:30:32;96740.78;;;3.23;0.00
23318;BME280;11831;55.918;37.746;2023-12-22T12:33:06;96733.22;;;4.08;0.00
23318;BME280;11831;55.918;37.746;2023-12-22T12:35:33;96735.00;;;3.48;0.00
23318;BME280;11831;55.918;37.746;2023-12-22T12:38:00;96742.56;;;3.66;0.00
23318;BME280;11831;55.918;37.746;2023-12-22T12:40:30;96737.53;;;3.92;0.00
23318;BME280;11831;55.918;37.746;2023-12-22T12:42:59;96722.16;;;3.57;0.00
23318;BME280;11831;55.918;37.746;2023-12-22T12:45:26;96723.91;;;3.46;0.00
23318;BME280;11831;55.918;37.746;2023-12-22T12:47:59;96734.09;;;3.64;0.00
23318;BME280;11831;55.918;37.746;2023-12-22T12:50:26;96730.41;;;3.92;0.00
23318;BME280;11831;55.918;37.746;2023-12-22T12:52:55;96716.09;;;3.34;0.00
23318;BME280;11831;55.918;37.746;2023-12-22T12:55:23;96723.44;;;3.81;0.00
23318;BME280;11831;55.918;37.746;2023-12-22T12:57:55;96706.75;;;3.76;0.00
23318;BME280;11831;55.918;37.746;2023-12-22T13:00:32;96712.41;;;3.62;0.00
23318;BME280;11831;55.918;37.746;2023-12-22T13:03:05;96698.03;;;3.75;0.00
23318;BME280;11831;55.918;37.746;2023-12-22T13:05:32;96713.97;;;3.85;0.00
23318;BME280;11831;55.918;37.746;2023-12-22T13:08:12;96701.37;;;3.97;0.00
23318;BME280;11831;55.918;37.746;2023-12-22T13:10:39;96702.72;;;3.41;0.00
23318;BME280;11831;55.918;37.746;2023-12-22T13:13:06;96709.13;;;3.77;0.00
23318;BME280;11831;55.918;37.746;2023-12-22T13:15:33;96714.00;;;3.90;0.00
23318;BME280;11831;55.918;37.746;2023-12-22T13:18:00;96699.03;;;3.20;0.00
23318;BME280;11831;55.918;37.746;2023-12-22T13:20:27;96707.16;;;3.94;0.00